sensor_id;sensor_type;location;lat;lon;timestamp;P1;durP1;ratioP1;P2;durP2;ratioP2
6185;SDS011;3126;52.738;8.316;2023-06-26T00:00:45;15.35;;;13.85;;
6185;SDS011;3126;52.738;8.316;2023-06-26T00:05:47;14.73;;;13.30;;
6185;SDS011;3126;52.738;8.316;2023-06-26T00:10:48;14.50;;;13.07;;
6185;SDS011;3126;52.738;8.316;2023-06-26T00:15:51;16.10;;;14.45;;
6185;SDS011;3126;52.738;8.316;2023-06-26T00:20:51;14.82;;;13.32;;
6185;SDS011;3126;52.738;8.316;2023-06-26T00:25:52;14.63;;;13.23;;
6185;SDS011;3126;52.738;8.316;2023-06-26T00:30:53;15.27;;;13.88;;
6185;SDS011;3126;52.738;8.316;2023-06-26T00:35:53;16.05;;;14.48;;
6185;SDS011;3126;52.738;8.316;2023-06-26T00:40:54;16.23;;;14.48;;
6185;SDS011;3126;52.738;8.316;2023-06-26T00:45:56;15.73;;;14.13;;
6185;SDS011;3126;52.738;8.316;2023-06-26T00:50:57;18.83;;;15.30;;
6185;SDS011;3126;52.738;8.316;2023-06-26T00:55:58;16.00;;;14.40;;
6185;SDS011;3126;52.738;8.316;2023-06-26T01:00:59;16.52;;;14.93;;
6185;SDS011;3126;52.738;8.316;2023-06-26T01:06:01;19.25;;;16.90;;
6185;SDS011;3126;52.738;8.316;2023-06-26T01:11:02;17.02;;;15.07;;
6185;SDS011;3126;52.738;8.316;2023-06-26T01:16:03;19.20;;;15.05;;
6185;SDS011;3126;52.738;8.316;2023-06-26T01:21:05;18.67;;;16.77;;
6185;SDS011;3126;52.738;8.316;2023-06-26T01:26:22;17.02;;;15.25;;
6185;SDS011;3126;52.738;8.316;2023-06-26T01:31:23;18.45;;;16.25;;
6185;SDS011;3126;52.738;8.316;2023-06-26T01:36:25;17.88;;;16.10;;
6185;SDS011;3126;52.738;8.316;2023-06-26T01:41:26;17.02;;;15.32;;
6185;SDS011;3126;52.738;8.316;2023-06-26T01:51:42;15.80;;;14.25;;
6185;SDS011;3126;52.738;8.316;2023-06-26T01:56:45;19.20;;;15.93;;
6185;SDS011;3126;52.738;8.316;2023-06-26T02:07:28;18.75;;;16.92;;
6185;SDS011;3126;52.738;8.316;2023-06-26T02:12:29;16.88;;;15.13;;
6185;SDS011;3126;52.738;8.316;2023-06-26T02:17:30;17.45;;;15.65;;
6185;SDS011;3126;52.738;8.316;2023-06-26T02:22:31;17.85;;;15.00;;
6185;SDS011;3126;52.738;8.316;2023-06-26T02:27:32;16.45;;;14.70;;
6185;SDS011;3126;52.738;8.316;2023-06-26T02:32:34;16.95;;;15.18;;
6185;SDS011;3126;52.738;8.316;2023-06-26T02:37:35;15.98;;;14.30;;
6185;SDS011;3126;52.738;8.316;2023-06-26T02:42:35;15.82;;;14.15;;
6185;SDS011;3126;52.738;8.316;2023-06-26T02:47:36;17.90;;;14.63;;
6185;SDS011;3126;52.738;8.316;2023-06-26T02:52:40;15.38;;;13.77;;
6185;SDS011;3126;52.738;8.316;2023-06-26T02:57:41;15.10;;;13.55;;
6185;SDS011;3126;52.738;8.316;2023-06-26T03:02:42;16.08;;;13.23;;
6185;SDS011;3126;52.738;8.316;2023-06-26T03:07:43;13.43;;;12.18;;
6185;SDS011;3126;52.738;8.316;2023-06-26T03:12:44;15.50;;;12.88;;
6185;SDS011;3126;52.738;8.316;2023-06-26T03:17:45;13.52;;;11.85;;
6185;SDS011;3126;52.738;8.316;2023-06-26T03:22:45;13.15;;;11.93;;
6185;SDS011;3126;52.738;8.316;2023-06-26T03:27:46;13.93;;;11.30;;
6185;SDS011;3126;52.738;8.316;2023-06-26T03:32:47;13.13;;;11.82;;
6185;SDS011;3126;52.738;8.316;2023-06-26T03:37:48;13.32;;;12.02;;
6185;SDS011;3126;52.738;8.316;2023-06-26T03:42:49;14.73;;;12.00;;
6185;SDS011;3126;52.738;8.316;2023-06-26T03:47:50;14.82;;;12.25;;
6185;SDS011;3126;52.738;8.316;2023-06-26T03:52:51;18.02;;;11.55;;
6185;SDS011;3126;52.738;8.316;2023-06-26T03:57:54;12.73;;;11.43;;
6185;SDS011;3126;52.738;8.316;2023-06-26T04:02:55;12.40;;;11.10;;
6185;SDS011;3126;52.738;8.316;2023-06-26T04:07:57;16.17;;;11.80;;
6185;SDS011;3126;52.738;8.316;2023-06-26T04:12:58;15.80;;;11.52;;
6185;SDS011;3126;52.738;8.316;2023-06-26T04:17:59;12.60;;;11.30;;
6185;SDS011;3126;52.738;8.316;2023-06-26T04:23:00;14.18;;;11.35;;
6185;SDS011;3126;52.738;8.316;2023-06-26T04:28:01;12.80;;;11.50;;
6185;SDS011;3126;52.738;8.316;2023-06-26T04:33:02;11.65;;;10.30;;
6185;SDS011;3126;52.738;8.316;2023-06-26T04:38:03;15.57;;;12.38;;
6185;SDS011;3126;52.738;8.316;2023-06-26T04:43:04;16.10;;;14.10;;
6185;SDS011;3126;52.738;8.316;2023-06-26T04:48:05;16.02;;;14.30;;
6185;SDS011;3126;52.738;8.316;2023-06-26T04:53:06;12.07;;;10.57;;
6185;SDS011;3126;52.738;8.316;2023-06-26T04:58:07;12.55;;;10.35;;
6185;SDS011;3126;52.738;8.316;2023-06-26T05:03:09;13.80;;;10.80;;
6185;SDS011;3126;52.738;8.316;2023-06-26T05:08:23;10.95;;;9.70;;
6185;SDS011;3126;52.738;8.316;2023-06-26T05:13:26;11.85;;;10.57;;
6185;SDS011;3126;52.738;8.316;2023-06-26T05:18:27;13.07;;;9.98;;
6185;SDS011;3126;52.738;8.316;2023-06-26T05:23:30;11.73;;;10.52;;
6185;SDS011;3126;52.738;8.316;2023-06-26T05:28:31;12.63;;;10.35;;
6185;SDS011;3126;52.738;8.316;2023-06-26T05:33:33;11.95;;;10.15;;
6185;SDS011;3126;52.738;8.316;2023-06-26T05:38:36;11.57;;;9.73;;
6185;SDS011;3126;52.738;8.316;2023-06-26T05:43:37;11.82;;;9.75;;
6185;SDS011;3126;52.738;8.316;2023-06-26T05:48:38;9.57;;;8.57;;
6185;SDS011;3126;52.738;8.316;2023-06-26T05:53:39;10.23;;;9.13;;
6185;SDS011;3126;52.738;8.316;2023-06-26T05:58:40;10.05;;;8.98;;
6185;SDS011;3126;52.738;8.316;2023-06-26T06:03:43;9.60;;;8.20;;
6185;SDS011;3126;52.738;8.316;2023-06-26T06:08:44;10.05;;;8.85;;
6185;SDS011;3126;52.738;8.316;2023-06-26T06:13:45;11.07;;;9.57;;
6185;SDS011;3126;52.738;8.316;2023-06-26T06:18:46;12.30;;;9.98;;
6185;SDS011;3126;52.738;8.316;2023-06-26T06:23:47;12.50;;;9.70;;
6185;SDS011;3126;52.738;8.316;2023-06-26T06:28:48;12.13;;;10.02;;
6185;SDS011;3126;52.738;8.316;2023-06-26T06:33:49;12.20;;;11.00;;
6185;SDS011;3126;52.738;8.316;2023-06-26T06:38:49;13.15;;;10.82;;
6185;SDS011;3126;52.738;8.316;2023-06-26T06:43:50;11.57;;;10.38;;
6185;SDS011;3126;52.738;8.316;2023-06-26T06:48:51;11.45;;;10.27;;
6185;SDS011;3126;52.738;8.316;2023-06-26T06:53:52;14.23;;;11.77;;
6185;SDS011;3126;52.738;8.316;2023-06-26T06:58:53;14.05;;;11.13;;
6185;SDS011;3126;52.738;8.316;2023-06-26T07:03:53;14.73;;;10.38;;
6185;SDS011;3126;52.738;8.316;2023-06-26T07:08:54;11.82;;;10.70;;
6185;SDS011;3126;52.738;8.316;2023-06-26T07:13:55;12.23;;;10.93;;
6185;SDS011;3126;52.738;8.316;2023-06-26T07:18:55;12.57;;;10.43;;
6185;SDS011;3126;52.738;8.316;2023-06-26T07:23:57;14.20;;;10.88;;
6185;SDS011;3126;52.738;8.316;2023-06-26T07:28:57;12.55;;;11.30;;
6185;SDS011;3126;52.738;8.316;2023-06-26T07:33:58;15.73;;;11.27;;
6185;SDS011;3126;52.738;8.316;2023-06-26T07:38:59;13.18;;;10.27;;
6185;SDS011;3126;52.738;8.316;2023-06-26T07:44:00;12.35;;;9.85;;
6185;SDS011;3126;52.738;8.316;2023-06-26T07:49:01;11.82;;;10.05;;
6185;SDS011;3126;52.738;8.316;2023-06-26T07:54:02;12.90;;;9.10;;
6185;SDS011;3126;52.738;8.316;2023-06-26T07:59:03;9.05;;;6.05;;
6185;SDS011;3126;52.738;8.316;2023-06-26T08:04:04;9.82;;;7.15;;
6185;SDS011;3126;52.738;8.316;2023-06-26T08:09:04;14.45;;;10.45;;
6185;SDS011;3126;52.738;8.316;2023-06-26T08:14:06;17.85;;;11.65;;
6185;SDS011;3126;52.738;8.316;2023-06-26T08:19:07;17.70;;;12.43;;
6185;SDS011;3126;52.738;8.316;2023-06-26T08:24:08;21.13;;;13.75;;
6185;SDS011;3126;52.738;8.316;2023-06-26T08:29:09;20.60;;;13.52;;
6185;SDS011;3126;52.738;8.316;2023-06-26T08:34:10;18.80;;;13.40;;
6185;SDS011;3126;52.738;8.316;2023-06-26T08:39:11;18.95;;;13.48;;
6185;SDS011;3126;52.738;8.316;2023-06-26T08:44:12;18.38;;;12.77;;
6185;SDS011;3126;52.738;8.316;2023-06-26T08:54:14;19.52;;;13.52;;
6185;SDS011;3126;52.738;8.316;2023-06-26T08:59:16;17.92;;;12.27;;
6185;SDS011;3126;52.738;8.316;2023-06-26T09:04:17;15.57;;;11.05;;
6185;SDS011;3126;52.738;8.316;2023-06-26T09:09:18;14.23;;;10.32;;
6185;SDS011;3126;52.738;8.316;2023-06-26T09:14:20;14.80;;;8.77;;
6185;SDS011;3126;52.738;8.316;2023-06-26T09:19:22;8.95;;;6.85;;
6185;SDS011;3126;52.738;8.316;2023-06-26T09:24:23;9.40;;;5.80;;
6185;SDS011;3126;52.738;8.316;2023-06-26T09:29:24;7.72;;;5.97;;
6185;SDS011;3126;52.738;8.316;2023-06-26T09:34:35;13.48;;;9.32;;
6185;SDS011;3126;52.738;8.316;2023-06-26T09:39:36;11.00;;;7.57;;
6185;SDS011;3126;52.738;8.316;2023-06-26T09:44:36;9.85;;;7.55;;
6185;SDS011;3126;52.738;8.316;2023-06-26T09:49:43;10.93;;;7.25;;
6185;SDS011;3126;52.738;8.316;2023-06-26T09:54:44;9.52;;;6.55;;
6185;SDS011;3126;52.738;8.316;2023-06-26T09:59:45;7.65;;;5.40;;
6185;SDS011;3126;52.738;8.316;2023-06-26T10:04:46;9.18;;;4.25;;
6185;SDS011;3126;52.738;8.316;2023-06-26T10:09:46;7.70;;;3.30;;
6185;SDS011;3126;52.738;8.316;2023-06-26T10:14:49;5.22;;;3.22;;
6185;SDS011;3126;52.738;8.316;2023-06-26T10:19:51;3.63;;;2.50;;
6185;SDS011;3126;52.738;8.316;2023-06-26T10:24:54;3.33;;;2.88;;
6185;SDS011;3126;52.738;8.316;2023-06-26T10:30:00;4.68;;;2.28;;
6185;SDS011;3126;52.738;8.316;2023-06-26T10:35:05;4.95;;;2.40;;
6185;SDS011;3126;52.738;8.316;2023-06-26T10:40:07;3.72;;;2.53;;
6185;SDS011;3126;52.738;8.316;2023-06-26T10:45:19;3.42;;;2.35;;
6185;SDS011;3126;52.738;8.316;2023-06-26T10:50:24;2.72;;;1.88;;
6185;SDS011;3126;52.738;8.316;2023-06-26T10:55:28;5.72;;;2.10;;
6185;SDS011;3126;52.738;8.316;2023-06-26T11:00:29;3.30;;;2.25;;
6185;SDS011;3126;52.738;8.316;2023-06-26T11:05:32;3.22;;;1.85;;
6185;SDS011;3126;52.738;8.316;2023-06-26T11:10:52;6.25;;;2.17;;
6185;SDS011;3126;52.738;8.316;2023-06-26T11:15:54;4.18;;;2.15;;
6185;SDS011;3126;52.738;8.316;2023-06-26T11:21:03;4.45;;;2.17;;
6185;SDS011;3126;52.738;8.316;2023-06-26T11:26:18;5.47;;;2.22;;
6185;SDS011;3126;52.738;8.316;2023-06-26T11:31:27;3.13;;;1.77;;
6185;SDS011;3126;52.738;8.316;2023-06-26T11:36:31;2.22;;;2.03;;
6185;SDS011;3126;52.738;8.316;2023-06-26T11:41:33;3.58;;;1.88;;
6185;SDS011;3126;52.738;8.316;2023-06-26T11:46:38;3.25;;;1.85;;
6185;SDS011;3126;52.738;8.316;2023-06-26T11:51:38;5.50;;;1.92;;
6185;SDS011;3126;52.738;8.316;2023-06-26T11:56:40;4.25;;;2.00;;
6185;SDS011;3126;52.738;8.316;2023-06-26T12:01:42;3.10;;;1.70;;
6185;SDS011;3126;52.738;8.316;2023-06-26T12:06:47;3.83;;;2.10;;
6185;SDS011;3126;52.738;8.316;2023-06-26T12:11:50;6.32;;;2.17;;
6185;SDS011;3126;52.738;8.316;2023-06-26T12:16:53;2.13;;;1.63;;
6185;SDS011;3126;52.738;8.316;2023-06-26T12:21:53;3.65;;;1.90;;
6185;SDS011;3126;52.738;8.316;2023-06-26T12:26:56;3.05;;;2.30;;
6185;SDS011;3126;52.738;8.316;2023-06-26T12:31:56;4.85;;;2.55;;
6185;SDS011;3126;52.738;8.316;2023-06-26T12:37:16;4.20;;;1.90;;
6185;SDS011;3126;52.738;8.316;2023-06-26T12:42:21;5.45;;;2.40;;
6185;SDS011;3126;52.738;8.316;2023-06-26T12:47:26;3.83;;;1.70;;
6185;SDS011;3126;52.738;8.316;2023-06-26T12:52:29;3.90;;;1.83;;
6185;SDS011;3126;52.738;8.316;2023-06-26T12:57:29;2.60;;;1.65;;
6185;SDS011;3126;52.738;8.316;2023-06-26T13:02:30;3.38;;;1.95;;
6185;SDS011;3126;52.738;8.316;2023-06-26T13:07:30;2.13;;;1.83;;
6185;SDS011;3126;52.738;8.316;2023-06-26T13:12:31;1.90;;;1.58;;
6185;SDS011;3126;52.738;8.316;2023-06-26T13:17:32;5.43;;;1.90;;
6185;SDS011;3126;52.738;8.316;2023-06-26T13:22:33;3.40;;;1.55;;
6185;SDS011;3126;52.738;8.316;2023-06-26T13:27:34;3.00;;;1.90;;
6185;SDS011;3126;52.738;8.316;2023-06-26T13:32:34;2.38;;;1.90;;
6185;SDS011;3126;52.738;8.316;2023-06-26T13:37:35;3.00;;;1.63;;
6185;SDS011;3126;52.738;8.316;2023-06-26T13:42:36;3.80;;;1.95;;
6185;SDS011;3126;52.738;8.316;2023-06-26T13:47:37;4.00;;;2.00;;
6185;SDS011;3126;52.738;8.316;2023-06-26T13:52:41;2.85;;;1.95;;
6185;SDS011;3126;52.738;8.316;2023-06-26T13:57:41;6.25;;;1.85;;
6185;SDS011;3126;52.738;8.316;2023-06-26T14:02:42;2.72;;;1.60;;
6185;SDS011;3126;52.738;8.316;2023-06-26T14:07:42;3.50;;;1.73;;
6185;SDS011;3126;52.738;8.316;2023-06-26T14:12:43;3.17;;;1.83;;
6185;SDS011;3126;52.738;8.316;2023-06-26T14:17:44;2.78;;;1.88;;
6185;SDS011;3126;52.738;8.316;2023-06-26T14:22:44;2.88;;;1.30;;
6185;SDS011;3126;52.738;8.316;2023-06-26T14:27:45;4.75;;;1.95;;
6185;SDS011;3126;52.738;8.316;2023-06-26T14:32:46;4.00;;;1.90;;
6185;SDS011;3126;52.738;8.316;2023-06-26T14:37:47;3.22;;;1.67;;
6185;SDS011;3126;52.738;8.316;2023-06-26T14:42:49;3.38;;;2.08;;
6185;SDS011;3126;52.738;8.316;2023-06-26T14:47:50;3.95;;;1.85;;
6185;SDS011;3126;52.738;8.316;2023-06-26T14:52:51;4.05;;;1.52;;
6185;SDS011;3126;52.738;8.316;2023-06-26T14:57:52;3.38;;;1.30;;
6185;SDS011;3126;52.738;8.316;2023-06-26T15:02:53;3.08;;;1.33;;
6185;SDS011;3126;52.738;8.316;2023-06-26T15:07:54;5.15;;;1.95;;
6185;SDS011;3126;52.738;8.316;2023-06-26T15:12:54;3.65;;;1.40;;
6185;SDS011;3126;52.738;8.316;2023-06-26T15:17:56;1.35;;;0.82;;
6185;SDS011;3126;52.738;8.316;2023-06-26T15:22:57;3.15;;;1.40;;
6185;SDS011;3126;52.738;8.316;2023-06-26T15:27:58;3.47;;;0.88;;
6185;SDS011;3126;52.738;8.316;2023-06-26T15:32:59;1.65;;;1.15;;
6185;SDS011;3126;52.738;8.316;2023-06-26T15:38:00;2.72;;;1.25;;
6185;SDS011;3126;52.738;8.316;2023-06-26T15:43:01;4.15;;;1.30;;
6185;SDS011;3126;52.738;8.316;2023-06-26T15:48:02;7.10;;;1.13;;
6185;SDS011;3126;52.738;8.316;2023-06-26T15:53:04;1.42;;;1.00;;
6185;SDS011;3126;52.738;8.316;2023-06-26T15:58:05;3.03;;;1.30;;
6185;SDS011;3126;52.738;8.316;2023-06-26T16:03:06;3.05;;;1.02;;
6185;SDS011;3126;52.738;8.316;2023-06-26T16:08:08;2.58;;;1.10;;
6185;SDS011;3126;52.738;8.316;2023-06-26T16:13:09;2.10;;;1.17;;
6185;SDS011;3126;52.738;8.316;2023-06-26T16:18:10;1.67;;;1.20;;
6185;SDS011;3126;52.738;8.316;2023-06-26T16:23:11;2.30;;;1.05;;
6185;SDS011;3126;52.738;8.316;2023-06-26T16:28:12;4.15;;;1.45;;
6185;SDS011;3126;52.738;8.316;2023-06-26T16:33:13;4.80;;;1.40;;
6185;SDS011;3126;52.738;8.316;2023-06-26T16:38:14;2.80;;;1.20;;
6185;SDS011;3126;52.738;8.316;2023-06-26T16:43:15;3.40;;;1.00;;
6185;SDS011;3126;52.738;8.316;2023-06-26T16:48:17;4.88;;;1.30;;
6185;SDS011;3126;52.738;8.316;2023-06-26T16:53:18;1.73;;;1.20;;
6185;SDS011;3126;52.738;8.316;2023-06-26T16:58:19;2.20;;;1.00;;
6185;SDS011;3126;52.738;8.316;2023-06-26T17:08:22;4.85;;;1.58;;
6185;SDS011;3126;52.738;8.316;2023-06-26T17:13:23;2.47;;;1.50;;
6185;SDS011;3126;52.738;8.316;2023-06-26T17:18:24;7.03;;;1.77;;
6185;SDS011;3126;52.738;8.316;2023-06-26T17:23:25;4.07;;;1.77;;
6185;SDS011;3126;52.738;8.316;2023-06-26T17:28:26;2.70;;;1.30;;
6185;SDS011;3126;52.738;8.316;2023-06-26T17:33:27;4.88;;;1.42;;
6185;SDS011;3126;52.738;8.316;2023-06-26T17:38:28;3.95;;;1.60;;
6185;SDS011;3126;52.738;8.316;2023-06-26T17:43:29;5.72;;;1.95;;
6185;SDS011;3126;52.738;8.316;2023-06-26T17:48:30;3.42;;;2.10;;
6185;SDS011;3126;52.738;8.316;2023-06-26T17:53:31;4.35;;;1.77;;
6185;SDS011;3126;52.738;8.316;2023-06-26T17:58:32;6.03;;;2.05;;
6185;SDS011;3126;52.738;8.316;2023-06-26T18:03:33;4.63;;;1.77;;
6185;SDS011;3126;52.738;8.316;2023-06-26T18:08:33;2.88;;;1.63;;
6185;SDS011;3126;52.738;8.316;2023-06-26T18:13:34;4.72;;;2.00;;
6185;SDS011;3126;52.738;8.316;2023-06-26T18:18:37;6.03;;;2.28;;
6185;SDS011;3126;52.738;8.316;2023-06-26T18:23:39;5.25;;;2.22;;
6185;SDS011;3126;52.738;8.316;2023-06-26T18:28:40;5.28;;;1.55;;
6185;SDS011;3126;52.738;8.316;2023-06-26T18:33:40;2.70;;;1.70;;
6185;SDS011;3126;52.738;8.316;2023-06-26T18:38:42;6.07;;;1.92;;
6185;SDS011;3126;52.738;8.316;2023-06-26T18:43:43;4.07;;;1.85;;
6185;SDS011;3126;52.738;8.316;2023-06-26T18:48:47;2.72;;;1.55;;
6185;SDS011;3126;52.738;8.316;2023-06-26T18:53:48;6.60;;;2.00;;
6185;SDS011;3126;52.738;8.316;2023-06-26T18:58:49;6.00;;;1.83;;
6185;SDS011;3126;52.738;8.316;2023-06-26T19:03:50;3.25;;;1.80;;
6185;SDS011;3126;52.738;8.316;2023-06-26T19:08:51;5.45;;;2.08;;
6185;SDS011;3126;52.738;8.316;2023-06-26T19:13:51;5.28;;;1.83;;
6185;SDS011;3126;52.738;8.316;2023-06-26T19:18:52;3.13;;;1.98;;
6185;SDS011;3126;52.738;8.316;2023-06-26T19:23:55;6.20;;;2.15;;
6185;SDS011;3126;52.738;8.316;2023-06-26T19:28:56;3.67;;;1.90;;
6185;SDS011;3126;52.738;8.316;2023-06-26T19:33:57;4.53;;;1.95;;
6185;SDS011;3126;52.738;8.316;2023-06-26T19:38:57;4.65;;;2.03;;
6185;SDS011;3126;52.738;8.316;2023-06-26T19:43:58;5.05;;;2.22;;
6185;SDS011;3126;52.738;8.316;2023-06-26T19:48:59;4.50;;;1.80;;
6185;SDS011;3126;52.738;8.316;2023-06-26T19:54:00;4.10;;;2.08;;
6185;SDS011;3126;52.738;8.316;2023-06-26T19:59:01;3.97;;;1.67;;
6185;SDS011;3126;52.738;8.316;2023-06-26T20:04:01;3.08;;;1.77;;
6185;SDS011;3126;52.738;8.316;2023-06-26T20:09:04;9.82;;;2.13;;
6185;SDS011;3126;52.738;8.316;2023-06-26T20:14:05;4.70;;;1.77;;
6185;SDS011;3126;52.738;8.316;2023-06-26T20:19:06;6.38;;;2.55;;
6185;SDS011;3126;52.738;8.316;2023-06-26T20:24:07;6.57;;;1.88;;
6185;SDS011;3126;52.738;8.316;2023-06-26T20:29:08;2.83;;;1.80;;
6185;SDS011;3126;52.738;8.316;2023-06-26T20:34:09;9.00;;;2.17;;
6185;SDS011;3126;52.738;8.316;2023-06-26T20:39:10;6.60;;;1.90;;
6185;SDS011;3126;52.738;8.316;2023-06-26T20:44:11;4.30;;;1.90;;
6185;SDS011;3126;52.738;8.316;2023-06-26T20:49:12;2.90;;;1.88;;
6185;SDS011;3126;52.738;8.316;2023-06-26T20:54:13;5.60;;;1.85;;
6185;SDS011;3126;52.738;8.316;2023-06-26T20:59:14;5.78;;;2.67;;
6185;SDS011;3126;52.738;8.316;2023-06-26T21:04:15;8.15;;;2.95;;
6185;SDS011;3126;52.738;8.316;2023-06-26T21:09:16;6.45;;;2.90;;
6185;SDS011;3126;52.738;8.316;2023-06-26T21:14:17;7.15;;;3.30;;
6185;SDS011;3126;52.738;8.316;2023-06-26T21:19:18;7.90;;;3.85;;
6185;SDS011;3126;52.738;8.316;2023-06-26T21:24:19;7.65;;;3.35;;
6185;SDS011;3126;52.738;8.316;2023-06-26T21:29:20;7.50;;;2.50;;
6185;SDS011;3126;52.738;8.316;2023-06-26T21:34:21;5.47;;;2.65;;
6185;SDS011;3126;52.738;8.316;2023-06-26T21:39:22;4.35;;;2.38;;
6185;SDS011;3126;52.738;8.316;2023-06-26T21:44:23;5.85;;;2.50;;
6185;SDS011;3126;52.738;8.316;2023-06-26T21:49:24;4.95;;;1.80;;
6185;SDS011;3126;52.738;8.316;2023-06-26T21:54:25;3.83;;;1.98;;
6185;SDS011;3126;52.738;8.316;2023-06-26T21:59:26;6.35;;;2.00;;
6185;SDS011;3126;52.738;8.316;2023-06-26T22:04:27;4.63;;;2.30;;
6185;SDS011;3126;52.738;8.316;2023-06-26T22:09:28;3.25;;;1.80;;
6185;SDS011;3126;52.738;8.316;2023-06-26T22:14:30;4.95;;;2.10;;
6185;SDS011;3126;52.738;8.316;2023-06-26T22:19:30;7.50;;;2.03;;
6185;SDS011;3126;52.738;8.316;2023-06-26T22:24:31;5.45;;;1.90;;
6185;SDS011;3126;52.738;8.316;2023-06-26T22:29:32;4.70;;;1.75;;
6185;SDS011;3126;52.738;8.316;2023-06-26T22:34:33;5.88;;;2.00;;
6185;SDS011;3126;52.738;8.316;2023-06-26T22:39:34;6.50;;;2.35;;
6185;SDS011;3126;52.738;8.316;2023-06-26T22:44:35;5.28;;;2.53;;
6185;SDS011;3126;52.738;8.316;2023-06-26T22:49:36;4.88;;;1.90;;
6185;SDS011;3126;52.738;8.316;2023-06-26T22:54:37;8.23;;;2.75;;
6185;SDS011;3126;52.738;8.316;2023-06-26T22:59:38;7.72;;;2.03;;
6185;SDS011;3126;52.738;8.316;2023-06-26T23:04:39;6.63;;;2.53;;
6185;SDS011;3126;52.738;8.316;2023-06-26T23:09:44;7.38;;;2.20;;
6185;SDS011;3126;52.738;8.316;2023-06-26T23:14:46;6.55;;;2.20;;
6185;SDS011;3126;52.738;8.316;2023-06-26T23:19:47;4.00;;;2.25;;
6185;SDS011;3126;52.738;8.316;2023-06-26T23:24:49;6.28;;;1.92;;
6185;SDS011;3126;52.738;8.316;2023-06-26T23:29:50;6.88;;;1.70;;
6185;SDS011;3126;52.738;8.316;2023-06-26T23:34:53;4.68;;;2.25;;
6185;SDS011;3126;52.738;8.316;2023-06-26T23:39:55;4.00;;;2.17;;
6185;SDS011;3126;52.738;8.316;2023-06-26T23:44:56;4.53;;;1.92;;
6185;SDS011;3126;52.738;8.316;2023-06-26T23:49:59;3.88;;;1.75;;
6185;SDS011;3126;52.738;8.316;2023-06-26T23:55:00;3.42;;;1.92;;
